Time;durP1;ratioP1;P1;durP2;ratioP2;P2;SDS_P1;SDS_P2;PMS_P1;PMS_P2;Temp;Humidity;BMP_temperature;BMP_pressure;BME280_temperature;BME280_humidity;BME280_pressure;Samples;Min_cycle;Max_cycle;Signal;HPM_P1;HPM_P2
2022/06/12 00:01:52;;;;;;;7.88;1.20;;;;;;;16.53;60.41;102330.25;5095599;27;99445;-35
2022/06/12 00:04:18;;;;;;;5.70;0.80;;;;;;;16.53;60.66;102341.19;5095215;27;99308;-35
2022/06/12 00:06:43;;;;;;;2.30;0.43;;;;;;;16.48;61.23;102326.94;5095529;27;96592;-35
2022/06/12 00:09:09;;;;;;;4.07;0.57;;;;;;;16.51;60.84;102329.47;5095448;27;96656;-34
2022/06/12 00:11:35;;;;;;;3.42;0.80;;;;;;;16.48;61.00;102325.06;5077029;27;101701;-34
2022/06/12 00:14:02;;;;;;;1.33;0.38;;;;;;;16.53;61.16;102333.88;5095621;27;97712;-35
2022/06/12 00:16:30;;;;;;;1.75;0.55;;;;;;;16.51;61.28;102337.69;5077269;27;96801;-35
2022/06/12 00:18:57;;;;;;;5.32;0.93;;;;;;;16.39;61.76;102320.19;5077190;27;96851;-35
2022/06/12 00:21:23;;;;;;;3.72;0.85;;;;;;;16.43;62.92;102323.63;5076867;27;101389;-35
2022/06/12 00:23:52;;;;;;;1.73;0.75;;;;;;;16.41;61.41;102317.34;5077151;27;100983;-34
2022/06/12 00:26:23;;;;;;;3.45;0.50;;;;;;;16.44;62.01;102323.50;5111516;27;96563;-35
2022/06/12 00:28:54;;;;;;;1.90;0.50;;;;;;;16.43;62.02;102329.09;5095967;27;96438;-34
2022/06/12 00:31:38;;;;;;;3.10;0.75;;;;;;;16.38;63.12;102320.28;5076311;27;101072;-35
2022/06/12 00:34:12;;;;;;;1.65;0.63;;;;;;;16.32;63.25;102316.06;5076590;27;100836;-35
2022/06/12 00:36:37;;;;;;;3.40;0.55;;;;;;;16.30;62.40;102316.19;5077133;27;96590;-35
2022/06/12 00:39:04;;;;;;;3.20;0.75;;;;;;;16.36;63.11;102320.38;5095435;27;96863;-35
2022/06/12 00:41:30;;;;;;;2.42;0.88;;;;;;;16.31;62.99;102328.00;5076635;27;100833;-35
2022/06/12 00:43:55;;;;;;;1.60;0.55;;;;;;;16.34;63.94;102325.06;5094668;27;107359;-35
2022/06/12 00:46:49;;;;;;;2.28;0.57;;;;;;;16.34;63.71;102325.06;5095438;27;96694;-35
2022/06/12 00:49:39;;;;;;;2.10;0.60;;;;;;;16.24;63.51;102323.88;5077072;27;96825;-35
2022/06/12 00:52:10;;;;;;;2.10;0.57;;;;;;;16.22;63.00;102325.81;5076180;27;101249;-35
2022/06/12 00:54:37;;;;;;;2.85;0.73;;;;;;;16.21;63.83;102327.69;5097034;27;99134;-35
2022/06/12 00:57:05;;;;;;;3.00;1.00;;;;;;;16.22;63.36;102323.97;5079859;27;96775;-34
2022/06/12 00:59:41;;;;;;;4.05;0.80;;;;;;;16.17;64.44;102320.63;5080268;27;96869;-35
2022/06/12 01:02:10;;;;;;;3.83;0.73;;;;;;;16.12;64.11;102317.31;5114466;27;101024;-34
2022/06/12 01:07:25;;;;;;;2.03;0.57;;;;;;;16.11;64.15;102327.38;5099107;27;96472;-35
2022/06/12 01:09:54;;;;;;;1.97;0.57;;;;;;;16.13;63.54;102317.19;5098418;27;99607;-34
2022/06/12 01:12:25;;;;;;;6.00;1.25;;;;;;;16.12;64.47;102328.25;5079503;27;100913;-35
2022/06/12 01:15:00;;;;;;;3.65;0.95;;;;;;;16.04;64.64;102326.00;5080127;27;101151;-35
2022/06/12 01:17:27;;;;;;;3.83;0.65;;;;;;;16.02;64.50;102333.41;5114494;27;96629;-35
2022/06/12 01:20:03;;;;;;;1.58;0.68;;;;;;;15.93;65.81;102326.63;5079880;27;97058;-35
2022/06/12 01:23:19;;;;;;;5.38;1.13;;;;;;;15.95;65.68;102317.47;5078797;27;103247;-34
2022/06/12 01:26:08;;;;;;;3.10;0.88;;;;;;;15.97;67.08;102323.69;5034202;28;98067;-35
2022/06/12 01:28:50;;;;;;;3.50;0.68;;;;;;;15.96;65.61;102322.81;5018065;28;96688;-35
2022/06/12 01:31:30;;;;;;;0.75;0.43;;;;;;;15.92;65.96;102318.50;5062638;27;96796;-34
2022/06/12 01:34:26;;;;;;;9.70;0.95;;;;;;;15.89;66.29;102321.44;5079138;27;100036;-35
2022/06/12 01:36:54;;;;;;;4.15;0.63;;;;;;;15.87;66.35;102324.28;5097644;27;99157;-35
2022/06/12 01:39:20;;;;;;;3.03;0.82;;;;;;;15.88;67.22;102320.56;5098135;27;96618;-35
2022/06/12 01:42:23;;;;;;;1.33;0.63;;;;;;;15.87;66.95;102320.66;5098795;27;96553;-35
2022/06/12 01:45:36;;;;;;;3.88;0.77;;;;;;;15.88;67.03;102322.41;5097612;27;98859;-35
2022/06/12 01:48:20;;;;;;;4.90;0.85;;;;;;;15.86;66.76;102318.91;5034295;27;97825;-35
2022/06/12 01:51:21;;;;;;;2.83;0.95;;;;;;;15.86;67.48;102327.09;5079077;27;96633;-35
2022/06/12 01:54:01;;;;;;;5.05;0.55;;;;;;;15.84;68.40;102329.03;5079355;27;96799;-35
2022/06/12 01:56:49;;;;;;;3.03;0.65;;;;;;;15.76;68.11;102317.69;5078975;27;100678;-34
2022/06/12 01:59:17;;;;;;;2.05;0.43;;;;;;;15.70;67.78;102318.94;5113653;27;101039;-35
2022/06/12 02:02:24;;;;;;;4.63;0.65;;;;;;;15.69;68.65;102333.53;5079158;27;96764;-35
2022/06/12 02:05:08;;;;;;;2.28;0.65;;;;;;;15.67;69.50;102330.88;5057786;27;96902;-35
2022/06/12 02:07:38;;;;;;;4.60;1.00;;;;;;;15.61;68.01;102325.81;5078968;27;100902;-35
2022/06/12 02:10:17;;;;;;;2.17;0.88;;;;;;;15.70;69.00;102328.00;5078846;27;100817;-35
2022/06/12 02:15:41;;;;;;;1.77;0.88;;;;;;;15.64;68.41;102306.50;5098155;27;96638;-35
2022/06/12 02:18:18;;;;;;;4.70;1.00;;;;;;;15.69;68.23;102315.28;5078154;27;100877;-35
2022/06/12 02:20:50;;;;;;;1.45;0.75;;;;;;;15.66;68.69;102310.03;5097403;27;98010;-35
2022/06/12 02:23:23;;;;;;;4.25;1.20;;;;;;;15.61;68.62;102305.78;5078955;27;96658;-35
2022/06/12 02:25:52;;;;;;;2.05;0.60;;;;;;;15.58;68.03;102295.03;5078586;27;96683;-35
2022/06/12 02:28:25;;;;;;;3.35;0.60;;;;;;;15.61;67.68;102317.59;5112945;27;101472;-35
2022/06/12 02:30:57;;;;;;;3.85;0.68;;;;;;;15.60;69.57;102304.03;5097035;27;99121;-35
2022/06/12 02:33:32;;;;;;;;;;;;;;;15.59;69.29;102308.63;5097902;27;96587;-35
2022/06/12 02:36:09;;;;;;;4.25;0.98;;;;;;;15.56;68.88;102311.50;5079243;27;96833;-35
2022/06/12 02:38:42;;;;;;;4.75;0.90;;;;;;;15.51;68.58;102314.50;5078022;27;100740;-35
2022/06/12 02:41:44;;;;;;;6.35;1.23;;;;;;;15.50;69.80;102315.50;5112872;27;100913;-35
2022/06/12 02:44:18;;;;;;;2.85;0.95;;;;;;;15.43;69.81;102310.50;5062212;27;96596;-35
2022/06/12 02:46:57;;;;;;;2.78;0.68;;;;;;;15.45;70.20;102316.75;5097071;27;96600;-34
2022/06/12 02:49:22;;;;;;;3.83;0.77;;;;;;;15.43;69.40;102313.22;5097143;27;98033;-34
2022/06/12 02:52:00;;;;;;;2.28;0.70;;;;;;;15.42;70.30;102311.44;5078052;27;100960;-35
2022/06/12 02:54:45;;;;;;;3.60;0.75;;;;;;;15.41;72.08;102315.16;5078346;27;96582;-34
2022/06/12 02:57:26;;;;;;;4.13;0.75;;;;;;;15.33;70.63;102301.97;5078072;27;96729;-35
2022/06/12 03:00:07;;;;;;;2.53;0.80;;;;;;;15.38;71.46;102309.88;5078088;27;101322;-35
2022/06/12 03:02:42;;;;;;;6.75;1.40;;;;;;;15.35;71.90;102299.13;5097056;27;97775;-34
2022/06/12 03:05:21;;;;;;;2.67;0.85;;;;;;;15.29;71.01;102294.91;5078368;27;96910;-35
2022/06/12 03:07:51;;;;;;;4.38;1.08;;;;;;;15.30;71.55;102307.56;5096920;27;96803;-34
2022/06/12 03:10:23;;;;;;;1.83;0.68;;;;;;;15.27;71.04;102303.19;5111227;27;100902;-35
2022/06/12 03:12:50;;;;;;;1.75;0.95;;;;;;;15.24;71.20;102294.31;5096107;27;97857;-35
2022/06/12 03:15:42;;;;;;;2.95;0.75;;;;;;;15.28;72.03;102301.34;5096750;27;96726;-34
2022/06/12 03:18:11;;;;;;;1.80;0.68;;;;;;;15.20;72.46;102290.84;5077948;27;96903;-34
2022/06/12 03:20:55;;;;;;;11.38;1.67;;;;;;;15.31;72.29;102309.34;5077645;27;100877;-34
2022/06/12 03:23:51;;;;;;;2.80;0.77;;;;;;;15.29;72.67;102306.69;5096142;27;99030;-35
2022/06/12 03:26:31;;;;;;;6.18;1.25;;;;;;;15.29;72.07;102311.28;5096589;27;96591;-35
2022/06/12 03:29:28;;;;;;;2.63;0.70;;;;;;;15.29;72.35;102311.28;5096929;27;96767;-35
2022/06/12 03:32:11;;;;;;;2.53;0.75;;;;;;;15.21;71.43;102298.09;5096009;27;99874;-35
2022/06/12 03:34:53;;;;;;;2.70;0.80;;;;;;;15.23;72.24;102306.16;5077215;27;101520;-35
2022/06/12 03:37:26;;;;;;;7.93;1.00;;;;;;;15.25;72.25;102313.34;5077123;27;96816;-35
2022/06/12 03:40:01;;;;;;;3.92;0.90;;;;;;;15.25;71.01;102304.25;5112547;27;96757;-35
2022/06/12 03:42:41;;;;;;;3.78;0.95;;;;;;;15.26;71.54;102314.22;5077377;27;100829;-34
2022/06/12 03:45:12;;;;;;;3.90;0.95;;;;;;;15.28;71.59;102317.72;5077274;27;100792;-35
2022/06/12 03:48:19;;;;;;;4.30;0.80;;;;;;;15.24;71.80;102313.41;5112311;27;96572;-35
2022/06/12 03:50:56;;;;;;;5.88;1.23;;;;;;;15.22;71.39;102308.03;5095820;27;96731;-34
2022/06/12 03:53:48;;;;;;;4.55;1.00;;;;;;;15.28;72.16;102320.47;5076985;27;100978;-34
2022/06/12 03:59:13;;;;;;;2.65;0.82;;;;;;;15.24;72.13;102321.59;5095763;27;96429;-34
2022/06/12 04:01:40;;;;;;;1.77;0.80;;;;;;;15.20;72.01;102314.56;5096089;27;96487;-34
2022/06/12 04:04:06;;;;;;;4.90;0.95;;;;;;;15.22;72.16;102318.94;5076559;27;101376;-34
2022/06/12 04:06:32;;;;;;;6.13;1.08;;;;;;;15.22;71.81;102318.06;5077138;27;100975;-35
2022/06/12 04:09:12;;;;;;;10.23;1.00;;;;;;;15.20;71.75;102311.81;5095592;27;96498;-33
2022/06/12 04:11:39;;;;;;;1.23;0.60;;;;;;;15.22;71.83;102321.69;5095952;27;96527;-34
2022/06/12 04:14:11;;;;;;;3.17;1.10;;;;;;;15.26;72.15;102325.13;5111257;27;100855;-35
2022/06/12 04:16:45;;;;;;;5.63;1.35;;;;;;;15.25;72.22;102323.34;5077013;27;100519;-34
2022/06/12 04:19:16;;;;;;;8.75;1.23;;;;;;;15.22;72.14;102313.50;5111767;27;96665;-34
2022/06/12 04:21:52;;;;;;;6.05;1.48;;;;;;;15.25;71.97;102315.16;5112179;27;96624;-34
2022/06/12 04:24:38;;;;;;;9.07;1.17;;;;;;;15.31;71.95;102324.88;5076825;27;100906;-34
2022/06/12 04:27:11;;;;;;;3.03;1.00;;;;;;;15.31;71.14;102325.75;5095019;27;101976;-34
2022/06/12 04:29:39;;;;;;;2.17;0.93;;;;;;;15.33;71.58;102326.53;5079014;27;96770;-34
2022/06/12 04:32:07;;;;;;;4.90;1.35;;;;;;;15.31;71.56;102325.75;5080422;27;96898;-34
2022/06/12 04:34:37;;;;;;;6.72;1.13;;;;;;;15.32;72.20;102323.88;5080160;27;101103;-34
2022/06/12 04:37:28;;;;;;;4.32;1.00;;;;;;;15.33;72.04;102326.53;5098572;27;99320;-35
2022/06/12 04:39:55;;;;;;;6.57;1.25;;;;;;;15.37;73.73;102332.69;5080527;27;96657;-34
2022/06/12 04:42:23;;;;;;;4.70;0.88;;;;;;;15.38;71.85;102338.06;5080581;27;96926;-34
2022/06/12 04:44:49;;;;;;;4.68;1.38;;;;;;;15.39;71.71;102341.66;5114843;27;100860;-34
2022/06/12 04:47:19;;;;;;;2.03;0.63;;;;;;;15.38;71.74;102326.28;5099551;27;97357;-34
2022/06/12 04:49:46;;;;;;;6.43;1.60;;;;;;;15.41;71.20;102328.81;5098978;27;96694;-34
2022/06/12 04:52:12;;;;;;;3.97;1.10;;;;;;;15.49;71.61;102340.16;5099161;27;96737;-34
2022/06/12 04:54:40;;;;;;;4.75;1.33;;;;;;;15.43;71.85;102330.47;5079575;27;100896;-34
2022/06/12 04:57:06;;;;;;;2.83;1.00;;;;;;;15.51;71.51;102347.28;5080003;27;101476;-34
2022/06/12 04:59:31;;;;;;;5.78;1.02;;;;;;;15.51;71.33;102338.22;5080153;27;96602;-34
2022/06/12 05:01:57;;;;;;;3.20;1.00;;;;;;;15.58;71.57;102344.22;5099070;27;96764;-34
2022/06/12 05:04:26;;;;;;;6.05;1.35;;;;;;;15.64;71.16;102343.88;5079891;27;101320;-34
2022/06/12 05:06:51;;;;;;;6.85;1.30;;;;;;;15.67;70.70;102341.81;5079796;27;98848;-34
2022/06/12 05:09:19;;;;;;;6.63;1.38;;;;;;;15.70;70.79;102346.25;5098261;27;96808;-34
2022/06/12 05:11:45;;;;;;;3.08;0.70;;;;;;;15.72;71.05;102347.03;5080420;27;96743;-34
2022/06/12 05:14:11;;;;;;;6.43;0.98;;;;;;;15.70;70.28;102338.06;5079465;27;99053;-34
2022/06/12 05:16:44;;;;;;;4.00;0.80;;;;;;;15.81;69.97;102351.09;5114162;27;100977;-35
2022/06/12 05:19:17;;;;;;;2.38;0.93;;;;;;;15.80;69.93;102338.38;5079566;27;96590;-34
2022/06/12 05:21:43;;;;;;;1.45;0.80;;;;;;;15.90;69.30;102347.81;5079962;27;96832;-34
2022/06/12 05:24:10;;;;;;;7.53;0.98;;;;;;;15.95;68.95;102353.00;5098400;27;97894;-34
2022/06/12 05:26:38;;;;;;;7.03;1.20;;;;;;;16.01;68.79;102349.88;5079516;27;100995;-34
2022/06/12 05:29:06;;;;;;;1.27;0.60;;;;;;;16.06;68.49;102348.63;5114411;27;96687;-35
2022/06/12 05:31:31;;;;;;;2.53;0.88;;;;;;;16.11;68.35;102345.59;5114280;27;97601;-34
2022/06/12 05:33:57;;;;;;;2.33;0.70;;;;;;;16.16;67.80;102339.84;5097735;27;99447;-34
2022/06/12 05:36:23;;;;;;;2.13;0.90;;;;;;;16.25;67.78;102339.28;5098315;27;107161;-34
2022/06/12 05:38:49;;;;;;;1.38;0.82;;;;;;;16.36;67.72;102345.00;5079398;27;96615;-34
2022/06/12 05:41:15;;;;;;;1.83;0.82;;;;;;;16.34;67.32;102338.72;5078386;27;96822;-34
2022/06/12 05:43:41;;;;;;;5.45;1.05;;;;;;;16.45;67.28;102355.38;5096954;27;98778;-35
2022/06/12 05:46:12;;;;;;;4.80;1.00;;;;;;;16.54;67.45;102357.53;5079276;27;100913;-35
2022/06/12 05:48:40;;;;;;;2.90;0.98;;;;;;;16.63;66.86;102366.13;5098401;27;96501;-34
2022/06/12 05:51:06;;;;;;;2.42;0.60;;;;;;;16.67;66.80;102357.63;5098204;27;96769;-35
2022/06/12 05:53:36;;;;;;;3.60;0.52;;;;;;;16.69;66.29;102350.19;5113586;27;101008;-34
2022/06/12 05:56:05;;;;;;;3.55;0.90;;;;;;;16.81;66.15;102361.38;5079239;27;101814;-34
2022/06/12 05:58:31;;;;;;;3.10;0.70;;;;;;;16.87;65.96;102359.13;5079074;27;96743;-34
2022/06/12 06:00:57;;;;;;;2.97;0.98;;;;;;;16.95;66.18;102366.84;5079717;27;96927;-34
2022/06/12 06:03:23;;;;;;;4.97;1.63;;;;;;;16.97;65.69;102360.31;5113518;27;100745;-35
2022/06/12 06:05:49;;;;;;;2.47;0.90;;;;;;;17.04;65.67;102365.38;5097628;27;97879;-34
2022/06/12 06:08:16;;;;;;;5.50;1.10;;;;;;;17.05;65.19;102357.06;5113111;27;96609;-35
2022/06/12 06:10:42;;;;;;;3.30;0.93;;;;;;;17.12;65.07;102363.03;5060257;27;96849;-34
2022/06/12 06:13:08;;;;;;;6.53;1.63;;;;;;;17.21;64.68;102362.44;5054427;27;101274;-35
2022/06/12 06:15:34;;;;;;;2.95;0.80;;;;;;;17.29;64.61;102365.53;5054749;27;100971;-35
2022/06/12 06:18:00;;;;;;;2.20;1.00;;;;;;;17.33;64.63;102361.63;5056650;27;96527;-35
2022/06/12 06:20:31;;;;;;;2.00;0.70;;;;;;;17.41;64.03;102370.19;5056427;27;96850;-34
2022/06/12 06:22:57;;;;;;;3.65;1.00;;;;;;;17.59;64.05;102375.41;5054720;27;101110;-34
2022/06/12 06:25:25;;;;;;;5.25;0.90;;;;;;;17.66;63.47;102365.81;5056623;27;97907;-35
2022/06/12 06:27:51;;;;;;;3.38;1.05;;;;;;;17.71;63.60;102366.41;5055187;27;96602;-35
2022/06/12 06:30:18;;;;;;;5.68;1.02;;;;;;;17.83;63.32;102382.03;5055064;27;96896;-35
2022/06/12 06:32:44;;;;;;;2.58;0.60;;;;;;;17.86;63.05;102385.56;5054213;27;101197;-35
2022/06/12 06:35:11;;;;;;;1.75;0.90;;;;;;;17.95;63.50;102382.22;5054539;27;100828;-35
2022/06/12 06:37:36;;;;;;;2.83;1.08;;;;;;;18.06;63.33;102387.81;5054452;27;96708;-35
2022/06/12 06:40:03;;;;;;;4.72;0.88;;;;;;;18.16;62.62;102385.31;5056216;27;96811;-35
2022/06/12 06:42:29;;;;;;;4.28;0.98;;;;;;;18.26;62.59;102386.44;5054416;27;102455;-35
2022/06/12 06:47:39;;;;;;;1.65;0.88;;;;;;;18.29;62.07;102382.63;5056623;27;96522;-35
2022/06/12 06:50:06;;;;;;;4.32;0.88;;;;;;;18.39;62.29;102389.22;5055023;27;96656;-34
2022/06/12 06:52:32;;;;;;;3.92;1.00;;;;;;;18.53;62.11;102393.72;5053450;27;100615;-35
2022/06/12 06:54:58;;;;;;;5.75;0.93;;;;;;;18.67;62.03;102400.00;5055710;27;97734;-34
2022/06/12 06:57:23;;;;;;;3.40;0.80;;;;;;;18.72;61.47;102401.53;5055336;27;96644;-34
2022/06/12 06:59:48;;;;;;;4.18;1.02;;;;;;;18.87;61.13;102404.06;5055629;27;98325;-35
2022/06/12 07:02:14;;;;;;;2.40;0.80;;;;;;;19.01;60.82;102405.84;5055667;27;98941;-34
2022/06/12 07:04:39;;;;;;;3.92;1.23;;;;;;;19.06;60.16;102397.25;5055742;27;97783;-34
2022/06/12 07:07:05;;;;;;;2.42;1.02;;;;;;;19.15;59.93;102406.72;5055738;27;96587;-35
2022/06/12 07:09:30;;;;;;;2.05;0.90;;;;;;;19.25;60.09;102405.03;5053880;27;96762;-34
2022/06/12 07:11:56;;;;;;;4.70;0.90;;;;;;;19.45;59.66;102409.03;5055537;27;99266;-34
2022/06/12 07:14:21;;;;;;;4.53;1.17;;;;;;;19.56;59.55;102403.63;5055641;27;97840;-34
2022/06/12 07:16:46;;;;;;;4.13;0.85;;;;;;;19.64;58.58;102409.44;5055898;27;96475;-34
2022/06/12 07:19:12;;;;;;;1.52;0.77;;;;;;;19.69;58.96;102407.25;5055549;27;96788;-34
2022/06/12 07:21:38;;;;;;;2.47;0.65;;;;;;;19.76;58.29;102396.69;5053221;27;100909;-34
2022/06/12 07:24:04;;;;;;;3.58;0.80;;;;;;;19.87;58.98;102402.22;5055233;27;97877;-35
2022/06/12 07:26:34;;;;;;;2.80;0.95;;;;;;;20.02;58.33;102396.53;5054144;27;96576;-34
2022/06/12 07:29:00;;;;;;;6.60;1.35;;;;;;;20.13;57.63;102399.34;5055405;27;96908;-34
2022/06/12 07:31:26;;;;;;;3.00;1.02;;;;;;;20.21;57.95;102413.38;5055422;27;97921;-35
2022/06/12 07:33:51;;;;;;;3.25;0.95;;;;;;;20.27;57.52;102401.91;5055225;27;97756;-35
2022/06/12 07:36:18;;;;;;;3.08;1.27;;;;;;;20.29;56.48;102408.16;5053701;27;96692;-35
2022/06/12 07:38:46;;;;;;;4.53;1.42;;;;;;;20.34;57.33;102400.44;5054028;27;96998;-35
2022/06/12 07:41:12;;;;;;;3.78;0.80;;;;;;;20.50;57.30;102410.25;5053572;27;101492;-35
2022/06/12 07:43:39;;;;;;;5.50;1.33;;;;;;;20.58;56.97;102407.78;5053415;27;102908;-35
2022/06/12 07:46:09;;;;;;;6.35;1.08;;;;;;;20.56;56.07;102396.88;5053359;27;96732;-35
2022/06/12 07:48:35;;;;;;;2.47;0.75;;;;;;;20.68;55.78;102408.81;5053723;27;96876;-35
2022/06/12 07:51:04;;;;;;;4.30;1.25;;;;;;;20.66;54.90;102399.78;5053498;27;100431;-35
2022/06/12 07:53:31;;;;;;;4.35;1.00;;;;;;;20.72;55.34;102393.78;5053313;27;101088;-35
2022/06/12 07:55:57;;;;;;;1.90;0.98;;;;;;;20.87;55.49;102391.69;5052348;27;96711;-35
2022/06/12 07:58:23;;;;;;;2.25;0.60;;;;;;;20.99;54.10;102390.69;5052389;27;96824;-35
2022/06/12 08:00:50;;;;;;;4.63;0.68;;;;;;;21.03;54.71;102398.72;5052744;27;100913;-34
2022/06/12 08:03:16;;;;;;;3.55;0.80;;;;;;;21.13;54.87;102394.19;5053905;27;101049;-35
2022/06/12 08:05:41;;;;;;;3.88;0.95;;;;;;;21.17;54.15;102393.81;5058689;27;96696;-35
2022/06/12 08:08:07;;;;;;;4.88;1.17;;;;;;;21.20;52.94;102388.06;5058824;27;96888;-35
2022/06/12 08:10:32;;;;;;;2.30;1.00;;;;;;;21.35;53.83;102398.81;5083929;27;99292;-35
2022/06/12 08:13:01;;;;;;;6.32;1.13;;;;;;;21.59;53.30;102402.31;5099091;27;97750;-35
2022/06/12 08:15:28;;;;;;;4.18;1.05;;;;;;;21.61;52.75;102408.56;5080851;27;97145;-35
2022/06/12 08:17:56;;;;;;;3.00;1.00;;;;;;;21.66;52.47;102402.69;5099280;27;96823;-35
2022/06/12 08:20:25;;;;;;;3.05;1.08;;;;;;;21.68;51.77;102397.03;5080417;27;99975;-35
2022/06/12 08:23:26;;;;;;;2.90;1.08;;;;;;;21.84;52.39;102400.25;5080464;27;100765;-35
2022/06/12 08:26:03;;;;;;;3.13;0.80;;;;;;;21.87;49.58;102380.69;5080967;27;96674;-35
2022/06/12 08:28:32;;;;;;;1.63;0.95;;;;;;;21.85;51.58;102391.84;5080844;27;96832;-35
2022/06/12 08:31:01;;;;;;;1.95;0.88;;;;;;;21.91;51.26;102393.22;5080354;27;101156;-35
2022/06/12 08:33:27;;;;;;;2.03;0.82;;;;;;;21.85;50.44;102393.72;5080214;27;101312;-35
2022/06/12 08:35:52;;;;;;;3.53;0.95;;;;;;;22.13;50.76;102413.44;5080127;27;96507;-35
2022/06/12 08:38:20;;;;;;;2.58;0.90;;;;;;;22.27;51.31;102399.38;5080325;27;97917;-34
2022/06/12 08:41:08;;;;;;;2.78;0.95;;;;;;;22.47;49.91;102404.00;5080141;27;101003;-35
2022/06/12 08:43:45;;;;;;;2.20;0.85;;;;;;;22.48;49.41;102397.50;5080274;27;101469;-35
2022/06/12 08:46:27;;;;;;;2.03;0.95;;;;;;;22.59;49.91;102398.44;5099012;27;96853;-35
2022/06/12 08:48:55;;;;;;;4.93;1.02;;;;;;;22.69;49.90;102389.22;5080834;27;96728;-35
2022/06/12 08:51:31;;;;;;;3.80;1.20;;;;;;;22.82;49.28;102394.50;5079750;27;101050;-35
2022/06/12 08:54:25;;;;;;;3.15;1.10;;;;;;;22.83;49.82;102390.72;5099281;27;97320;-35
2022/06/12 08:56:56;;;;;;;1.95;0.90;;;;;;;22.80;48.96;102388.22;5084476;27;96739;-35
2022/06/12 08:59:35;;;;;;;2.35;0.75;;;;;;;22.86;48.64;102392.34;5099287;27;96639;-35
2022/06/12 09:02:14;;;;;;;3.72;1.23;;;;;;;22.96;48.67;102384.13;5079522;27;103312;-35
2022/06/12 09:04:40;;;;;;;2.08;1.10;;;;;;;22.91;47.31;102392.81;5079951;27;100786;-35
2022/06/12 09:07:13;;;;;;;3.42;0.93;;;;;;;22.94;48.56;102392.53;5080185;27;96720;-35
2022/06/12 09:10:01;;;;;;;2.30;0.88;;;;;;;23.03;48.08;102385.34;5079876;27;97387;-35
2022/06/12 09:12:47;;;;;;;2.65;0.82;;;;;;;23.04;47.13;102389.84;5098438;27;97489;-35
2022/06/12 09:15:28;;;;;;;4.47;0.90;;;;;;;23.03;46.37;102379.81;5079428;27;100716;-35
2022/06/12 09:18:13;;;;;;;1.90;0.80;;;;;;;23.17;46.82;102384.97;5080151;27;96594;-35
2022/06/12 09:20:47;;;;;;;1.65;0.63;;;;;;;23.09;47.59;102379.25;5080180;27;96723;-35
2022/06/12 09:23:40;;;;;;;6.88;1.15;;;;;;;23.20;46.44;102376.38;5098234;27;98805;-35
2022/06/12 09:26:21;;;;;;;1.98;0.98;;;;;;;23.37;46.34;102373.97;5079599;27;101117;-35
2022/06/12 09:29:13;;;;;;;4.10;0.90;;;;;;;23.50;44.83;102371.81;5079053;27;96710;-35
2022/06/12 09:32:03;;;;;;;2.10;0.73;;;;;;;23.56;45.73;102371.25;5079807;27;97270;-34
2022/06/12 09:34:56;;;;;;;5.93;1.45;;;;;;;23.57;46.31;102384.03;5098071;27;97570;-34
2022/06/12 09:40:33;;;;;;;4.45;0.80;;;;;;;23.66;46.59;102385.97;5097005;27;96624;-35
2022/06/12 09:43:19;;;;;;;2.28;0.93;;;;;;;23.76;45.66;102385.16;5079585;27;96782;-34
2022/06/12 09:45:49;;;;;;;4.68;0.90;;;;;;;23.86;45.99;102386.91;5098207;27;97937;-34
2022/06/12 09:48:27;;;;;;;4.20;0.95;;;;;;;24.02;44.78;102402.94;5098311;27;98371;-34
2022/06/12 09:51:31;;;;;;;2.63;0.68;;;;;;;23.98;45.56;102387.66;5097892;27;97635;-34
2022/06/12 09:54:20;;;;;;;1.58;0.77;;;;;;;24.08;44.58;102390.44;5026230;27;97023;-35
2022/06/12 09:57:03;;;;;;;3.13;0.80;;;;;;;24.10;43.62;102393.94;5078135;27;101082;-35
2022/06/12 09:59:48;;;;;;;3.15;0.90;;;;;;;24.24;44.08;102395.38;5078645;27;101195;-35
2022/06/12 10:02:28;;;;;;;1.85;0.80;;;;;;;24.33;44.72;102397.25;5069748;27;96669;-35
2022/06/12 10:05:04;;;;;;;3.33;0.57;;;;;;;24.03;43.99;102398.31;5093367;27;96955;-35
2022/06/12 10:07:38;;;;;;;3.15;1.10;;;;;;;23.94;43.93;102397.25;5109401;27;101034;-35
2022/06/12 10:10:16;;;;;;;3.28;0.88;;;;;;;24.06;43.88;102396.09;5067773;27;101074;-35
2022/06/12 10:12:47;;;;;;;3.78;0.75;;;;;;;24.30;44.96;102398.44;5083535;27;96763;-35
2022/06/12 10:15:23;;;;;;;3.95;1.23;;;;;;;24.50;43.33;102396.56;5059146;27;96708;-35
2022/06/12 10:17:59;;;;;;;3.00;0.73;;;;;;;24.52;43.00;102399.16;5076398;27;99957;-35
2022/06/12 10:20:32;;;;;;;3.72;0.90;;;;;;;24.45;42.87;102411.81;5057552;27;100905;-35
2022/06/12 10:22:58;;;;;;;3.13;0.80;;;;;;;24.53;43.77;102412.00;5074760;27;96845;-35
2022/06/12 10:25:34;;;;;;;7.75;1.02;;;;;;;24.63;43.60;102403.69;5075588;27;97250;-35
2022/06/12 10:28:01;;;;;;;5.60;1.15;;;;;;;24.61;41.92;102402.97;5057266;27;100900;-35
2022/06/12 10:30:40;;;;;;;3.72;0.80;;;;;;;24.61;41.07;102406.59;5057993;27;100904;-35
2022/06/12 10:33:26;;;;;;;3.83;1.10;;;;;;;24.49;42.59;102393.94;5058440;27;96591;-35
2022/06/12 10:35:58;;;;;;;4.82;0.88;;;;;;;24.56;43.07;102401.50;5058251;27;96750;-35
2022/06/12 10:38:27;;;;;;;4.93;1.25;;;;;;;24.65;42.38;102398.88;5057238;27;100590;-34
2022/06/12 10:40:56;;;;;;;4.32;1.10;;;;;;;24.76;41.12;102399.53;5058090;27;100966;-34
2022/06/12 10:43:47;;;;;;;4.60;1.10;;;;;;;24.84;42.78;102397.91;5057995;27;96564;-34
2022/06/12 10:46:23;;;;;;;1.58;0.65;;;;;;;24.94;41.56;102402.41;5066601;27;96890;-35
2022/06/12 10:49:05;;;;;;;3.55;0.70;;;;;;;24.70;40.66;102390.97;5057188;27;100924;-35
2022/06/12 10:51:38;;;;;;;6.25;0.80;;;;;;;24.75;41.08;102392.25;5057709;27;101066;-35
2022/06/12 10:54:21;;;;;;;0.77;0.57;;;;;;;24.83;40.68;102393.41;5057892;27;96937;-35
2022/06/12 10:56:57;;;;;;;1.48;0.70;;;;;;;24.94;41.95;102383.00;5057883;27;96769;-35
2022/06/12 10:59:38;;;;;;;5.45;1.27;;;;;;;24.78;41.57;102386.41;5057793;27;100886;-35
2022/06/12 11:02:06;;;;;;;4.13;0.77;;;;;;;24.76;41.81;102395.91;5057272;27;100844;-35
2022/06/12 11:04:59;;;;;;;2.58;0.65;;;;;;;24.65;41.75;102396.09;5076443;27;96517;-35
2022/06/12 11:07:51;;;;;;;2.65;0.95;;;;;;;24.78;41.18;102391.09;5057887;27;96703;-35
2022/06/12 11:10:47;;;;;;;2.22;0.60;;;;;;;24.72;40.93;102387.03;5075116;27;97942;-34
2022/06/12 11:13:18;;;;;;;1.48;0.65;;;;;;;24.88;41.86;102386.38;5075808;27;97854;-34
2022/06/12 11:16:01;;;;;;;3.22;0.82;;;;;;;24.90;40.44;102386.25;5057191;27;96586;-35
2022/06/12 11:18:36;;;;;;;1.95;0.70;;;;;;;24.68;41.58;102381.94;5057123;27;96871;-35
2022/06/12 11:21:22;;;;;;;3.30;0.70;;;;;;;24.71;41.14;102392.72;5056652;27;100861;-34
2022/06/12 11:24:12;;;;;;;3.15;0.55;;;;;;;24.61;40.46;102375.25;5056962;27;100846;-35
2022/06/12 11:26:52;;;;;;;0.70;0.40;;;;;;;24.69;41.51;102379.00;5057552;27;96782;-35
2022/06/12 11:29:47;;;;;;;2.60;0.90;;;;;;;24.87;40.58;102387.41;5057597;27;96757;-35
2022/06/12 11:32:39;;;;;;;5.30;0.77;;;;;;;24.69;41.89;102386.44;5075600;27;99552;-35
2022/06/12 11:35:55;;;;;;;0.43;0.22;;;;;;;24.65;40.52;102393.31;5057080;27;97908;-34
2022/06/12 11:38:39;;;;;;;2.38;0.55;;;;;;;24.57;39.90;102385.75;5029580;27;97035;-35
2022/06/12 11:41:36;;;;;;;2.88;0.73;;;;;;;24.13;40.86;102385.31;5057271;27;96762;-35
2022/06/12 11:44:45;;;;;;;1.98;0.32;;;;;;;24.19;39.82;102387.50;5075231;27;97505;-35
2022/06/12 11:47:42;;;;;;;2.60;0.68;;;;;;;24.26;39.94;102383.13;5057008;27;100907;-35
2022/06/12 11:50:32;;;;;;;2.95;0.70;;;;;;;23.85;41.47;102381.53;5075703;27;96599;-34
2022/06/12 11:53:10;;;;;;;2.53;0.90;;;;;;;24.00;41.11;102385.59;5057185;27;96812;-35
2022/06/12 11:55:41;;;;;;;1.60;0.65;;;;;;;24.07;41.70;102366.50;5056694;27;101035;-35
2022/06/12 11:58:40;;;;;;;2.13;0.47;;;;;;;23.91;41.95;102376.28;5056676;27;100950;-35
2022/06/12 12:01:24;;;;;;;3.08;0.60;;;;;;;23.47;42.64;102377.63;5057111;27;96664;-35
2022/06/12 12:04:11;;;;;;;2.88;0.77;;;;;;;23.29;42.82;102375.56;5075747;27;96570;-35
2022/06/12 12:06:55;;;;;;;3.50;0.70;;;;;;;23.57;42.20;102370.22;5075371;27;97394;-35
2022/06/12 12:09:25;;;;;;;2.55;0.47;;;;;;;23.71;41.54;102366.16;5075079;27;97934;-35
2022/06/12 12:11:59;;;;;;;1.73;0.82;;;;;;;23.89;41.87;102356.19;5056203;27;96759;-35